Lancaster, OH (43130)

1:58 AM EST on February 01, 2015 (GMT -0500)
KOHLANCA8 | Change Station
CLOSE
Current Station
Personal Weather Station
Location: Lancaster, OH
Elevation: 856 ft
Nearby Weather Stations
Active Advisory: Winter Weather Advisory

Elev 856 ft 39.72 °N, 82.57 °W | Updated 8 minutes ago

Ice Pellets
Ice Pellets
32.5 °F
Feels Like 32 °F
N
0.4
Wind Variable Wind from South
Gusts 2.2 mph

Today
High -- | Low -- °F
--% Chance of Precip.
Yesterday
High -- | Low -- °F
Precip. -- in
7:38 AM 5:49 PM
Waxing Gibbous, 93% visible
Pressure 30.22 in
Visibility 6.0 miles
Clouds Scattered Clouds 2600 ft
Mostly Cloudy 3100 ft
Overcast 3900 ft
Windchill 32 °F
Dew Point 26 °F
Humidity 77%
Rainfall 0.00 in
Snow Depth Not available.
UV 0 out of 12
Pollen .30 out of 12
Air Quality Not available.
Flu Activity Not available.
METAR KLHQ 010653Z AUTO 22006KT 6SM UP BR SCT026 BKN031 OVC039 01/M02 A3020 RMK AO2 UPE12B52FZRAB20E52 SLP234 P0000 I1001 T00061017

More Conditions Fewer Conditions

Pressure 30.22 in
Visibility 6.0 miles
Clouds Scattered Clouds 2600 ft
Mostly Cloudy 3100 ft
Overcast 3900 ft
Windchill 32 °F
Dew Point 26 °F
Humidity 77%
Rainfall 0.00 in
Snow Depth Not available.
UV 0 out of 12
Pollen .30 out of 12
Air Quality Not available.
Flu Activity Not available.
METAR KLHQ 010653Z AUTO 22006KT 6SM UP BR SCT026 BKN031 OVC039 01/M02 A3020 RMK AO2 UPE12B52FZRAB20E52 SLP234 P0000 I1001 T00061017

More Conditions Fewer Conditions

10-Day Weather Forecast

Almanac

Astronomy

Feb. 01, 2015 Rise Set
Actual Time
Civil Twilight
Nautical Twilight
Astronomical Twilight
Moon
Length of Visible Light
Length of Day
Tomorrow will be .
, % of the Moon is Illuminated

Today's Extremes

State Highs State Lows

Community

WunderPhotos

Upload Photos

1,792,324 photos uploaded!

WunderBlogs® & News

Nearby

Air Quality

  Air Quality AQ Index Pollutant
Not available.

Snow Depth

Station Depth Elevation

Earthquake Activity

City Distance Mag. Time & Date
Minimum magnitude displayed is 2.5.

Coastal Water Temperatures

Place Temperature

Nearby Weather Stations